Mount Clare, West Virginia
Current Conditions -  °F | °C
As of 8:09 PM on Thursday 18 Dec 2014 (Local Time) from KCKB Reporting Station
Overcast Overcast  
Wind Chill: 23°   Ceiling: 2400
Heat Index: 28°   Visibility: 10mi
Dew Point: 21°   Wind: 5mph
Humidity: 75%   Direction: 270°W
Pressure: 30.17"   Gusts: NA
Location:  39.17°N, 80.33°W
Report Text: KCKB 190109Z 27004KT 10SM BKN024 OVC095 M02/M06 A3017 RMK AO2 T10221061
Loading
Personal Weather Stations






























Interactive Weather Map New forecast layout! Learn more

10-Day Weather Forecast

Advertisements
Track Severe Weather on mobile